Moriarty, NM

7:40 AM MDT on May 04, 2015 (GMT -0600)
Moriarty | | Change Station
CLOSE
Current Station
Airport
Location: Moriarty,
Elevation: 6198 ft
Nearby Weather Stations

Elev 6198 ft 34.99 °N, 106.01 °W | Updated 25 minutes ago

Clear
Clear
47 °F
Feels Like 47 °F
N
5
Wind Variable Wind from SW

Today
High -- | Low -- °F
--% Chance of Precip.
Yesterday
High -- | Low -- °F
Precip. -- in
6:10 AM 7:51 PM
Full, 100% visible
Pressure 30.13 in
Visibility 10.0 miles
Clouds Clear
Dew Point 38 °F
Humidity 70%
Rainfall 0.00 in
Snow Depth Not available.
UV 1 out of 12
Pollen 6.80 out of 12
Air Quality Not available.
Flu Activity Local Activity
METAR K0E0 041315Z AUTO 22004KT 10SM CLR 09/03 A3013 RMK AO2 T00850033

More Conditions Fewer Conditions

Pressure 30.13 in
Visibility 10.0 miles
Clouds Clear
Dew Point 38 °F
Humidity 70%
Rainfall 0.00 in
Snow Depth Not available.
UV 1 out of 12
Pollen 6.80 out of 12
Air Quality Not available.
Flu Activity Local Activity
METAR K0E0 041315Z AUTO 22004KT 10SM CLR 09/03 A3013 RMK AO2 T00850033

More Conditions Fewer Conditions

Nepal has a long way to go to dig out and rebuild from a devastating earthquake. We have teamed up with several charities and organizations to make contributing to the relief effort as easy as possible.
How you can help: Portlight Strategies | Red Cross
Nowcast | as of 7:33 am MDT on May 4, 2015

Scattered showers and a few short lived thunderstorms will continue to move north to northeast over the Central Mountain chain and eastern plains this morning. A few cloud to ground lightning strikes...brief moderate to heavy rain and gusty winds will be characteristic of the storms. Some locations which may be impacted include Ramon to Arabela...Ruidoso...Roswell and Dexter...Mora and Wheatland...as well as Estancia and Clines Corners. Showers and storms are expected to become more numerous over the region as the morning progresses.

×

10-Day Weather Forecast

Almanac

Astronomy

May. 04, 2015 Rise Set
Actual Time
Civil Twilight
Nautical Twilight
Astronomical Twilight
Moon
Length of Visible Light
Length of Day
Tomorrow will be .
, % of the Moon is Illuminated

Today's Extremes

State Highs State Lows

Community

WunderPhotos

Upload Photos

1,818,611 photos uploaded!

WunderBlogs® & News

Nearby

Air Quality

  Air Quality AQ Index Pollutant
Not available.

Snow Depth

Station Depth Elevation

Earthquake Activity

City Distance Mag. Time & Date
Minimum magnitude displayed is 2.5.

Coastal Water Temperatures

Place Temperature

Stations

Nearby Weather Stations

Station Location Temp. Windchill Dew Point Humidity Wind Precip. Elev Updated Type